Thunder radar more information blitzortung!


Radar de pluja more information rain snow radar


Visita la nostra xarxa de llocs de meteo:

Template documentation
and downloads

And another site



No particular awareness of the weather is required.    There are no Weather-warnings

Pagina Historial Weather Underground text

Diari Resum Juny 21, 2017 Unitats:  Mètric    Imperial   Tant
« Previous Dia
SegĂźent Dia »
Diari Setmana Mensual Anual Personalitzada
  Maxima: Minima: Media:
Temperatura: 35.1 °C 20.9 °C 28.7 °C
Punt de rosada: 17.9 °C 13.1 °C 15.9 °C
Humitat: 61 % 35 % 47 %
Wind Speed: 20.4 km/h 0.0 km/h 7 km/h
RĂ fegues de vent: 20.4 km/h - -
Vent:- - SW
Pression baro: 1015.8 hPa 1012.8 hPa -
Precipitacions: 0.0 mm    
Historical Graphs
 
 
Dades de taula per Juny 21, 2017
Temps Temperatura Punt de rosada Pression baro Vent Wind Speed RĂ fegues de vent Humitat Rainfall Rate (Hourly)
00:04 23.5 °C 15.0 °C 1015.8 hPa West 5.6 km/h 5.6 km/h 59 % 0.0 mm
00:05 22.0 °C 13.9 °C 1013.8 hPa WSW 3.2 km/h 6.4 km/h 60 % 0.0 mm
00:09 23.4 °C 14.9 °C 1015.8 hPa WSW 7.4 km/h 7.4 km/h 59 % 0.0 mm
00:15 22.0 °C 13.6 °C 1013.8 hPa West 3.2 km/h 3.2 km/h 59 % 0.0 mm
00:25 22.0 °C 13.3 °C 1013.8 hPa West 3.2 km/h 3.2 km/h 58 % 0.0 mm
00:35 21.9 °C 13.5 °C 1013.8 hPa Calm   3.2 km/h 59 % 0.0 mm
00:45 21.7 °C 13.3 °C 1013.8 hPa WNW 1.6 km/h 3.2 km/h 59 % 0.0 mm
01:05 21.6 °C 13.2 °C 1013.8 hPa Calm   3.2 km/h 59 % 0.0 mm
01:15 21.6 °C 13.5 °C 1014.8 hPa NW 1.6 km/h 3.2 km/h 60 % 0.0 mm
01:25 21.2 °C 13.1 °C 1013.8 hPa Calm   1.6 km/h 60 % 0.0 mm
01:35 21.1 °C 13.1 °C 1013.8 hPa North 3.2 km/h 3.2 km/h 60 % 0.0 mm
01:45 20.9 °C 13.1 °C 1013.8 hPa NE 1.6 km/h 3.2 km/h 61 % 0.0 mm
01:55 20.9 °C 13.1 °C 1014.8 hPa NNE 1.6 km/h 1.6 km/h 61 % 0.0 mm
02:05 21.1 °C 13.3 °C 1014.8 hPa North 3.2 km/h 3.2 km/h 61 % 0.0 mm
02:15 21.2 °C 13.4 °C 1013.8 hPa NNE 1.6 km/h 4.8 km/h 61 % 0.0 mm
02:25 21.5 °C 13.7 °C 1014.8 hPa North 1.6 km/h 1.6 km/h 61 % 0.0 mm
02:35 21.1 °C 13.3 °C 1014.8 hPa West 1.6 km/h 3.2 km/h 61 % 0.0 mm
02:45 22.0 °C 13.9 °C 1014.8 hPa West 1.6 km/h 4.8 km/h 60 % 0.0 mm
02:55 22.1 °C 13.7 °C 1014.8 hPa NE 3.2 km/h 4.8 km/h 59 % 0.0 mm
03:05 22.6 °C 14.2 °C 1014.8 hPa Calm   3.2 km/h 59 % 0.0 mm
03:15 23.2 °C 14.5 °C 1014.8 hPa Calm   4.8 km/h 58 % 0.0 mm
03:25 23.5 °C 14.5 °C 1014.8 hPa NE 1.6 km/h 3.2 km/h 57 % 0.0 mm
03:35 23.9 °C 14.9 °C 1014.8 hPa ENE 1.6 km/h 3.2 km/h 57 % 0.0 mm
03:45 24.0 °C 14.4 °C 1014.8 hPa Calm   4.8 km/h 55 % 0.0 mm
03:55 24.8 °C 15.2 °C 1014.8 hPa NNE 1.6 km/h 3.2 km/h 55 % 0.0 mm
04:05 24.7 °C 14.8 °C 1014.8 hPa SSW 3.2 km/h 4.8 km/h 54 % 0.0 mm
04:15 24.9 °C 14.9 °C 1014.8 hPa SW 1.6 km/h 4.8 km/h 54 % 0.0 mm
04:25 25.9 °C 15.3 °C 1014.8 hPa SSW 1.6 km/h 4.8 km/h 52 % 0.0 mm
04:35 26.4 °C 15.4 °C 1014.8 hPa SSE 3.2 km/h 3.2 km/h 51 % 0.0 mm
04:45 26.4 °C 15.4 °C 1014.8 hPa SSE 3.2 km/h 4.8 km/h 51 % 0.0 mm
04:55 27.0 °C 15.7 °C 1014.8 hPa ESE 1.6 km/h 3.2 km/h 50 % 0.0 mm
05:05 27.0 °C 15.7 °C 1014.8 hPa NW 3.2 km/h 6.4 km/h 50 % 0.0 mm
05:15 27.7 °C 16.0 °C 1014.8 hPa SW 3.2 km/h 3.2 km/h 49 % 0.0 mm
05:25 28.0 °C 15.9 °C 1014.8 hPa Calm   3.2 km/h 48 % 0.0 mm
05:35 29.0 °C 16.6 °C 1014.8 hPa SE 1.6 km/h 3.2 km/h 47 % 0.0 mm
05:45 29.2 °C 16.4 °C 1014.8 hPa SSW 1.6 km/h 4.8 km/h 46 % 0.0 mm
10:47 29.9 °C 16.7 °C 1014.8 hPa East 4.2 km/h 4.2 km/h 45 % 0.0 mm
10:52 30.1 °C 16.8 °C 1014.8 hPa SW 3.7 km/h 3.7 km/h 45 % 0.0 mm
10:57 30.0 °C 16.8 °C 1014.8 hPa SW 3.7 km/h 3.7 km/h 45 % 0.0 mm
11:02 30.3 °C 16.7 °C 1014.8 hPa SSE 5.6 km/h 5.6 km/h 44 % 0.0 mm
11:07 30.5 °C 16.9 °C 1014.8 hPa SW 3.7 km/h   44 % 0.0 mm
11:12 30.8 °C 17.1 °C 1014.8 hPa SSW 3.9 km/h 3.9 km/h 44 % 0.0 mm
11:17 30.8 °C 17.1 °C 1014.8 hPa SSW 5.6 km/h 5.6 km/h 44 % 0.0 mm
11:22 30.7 °C 16.7 °C 1014.8 hPa SW 7.4 km/h 7.4 km/h 43 % 0.0 mm
11:27 30.9 °C 16.9 °C 1014.8 hPa WSW 5.6 km/h 5.6 km/h 43 % 0.0 mm
11:32 30.8 °C 16.4 °C 1014.8 hPa ENE 5.6 km/h 5.6 km/h 42 % 0.0 mm
11:37 30.8 °C 16.4 °C 1014.8 hPa SW 9.3 km/h 9.3 km/h 42 % 0.0 mm
11:42 30.7 °C 16.3 °C 1014.8 hPa SSW 7.4 km/h 7.4 km/h 42 % 0.0 mm
11:47 31.2 °C 16.4 °C 1014.8 hPa WSW 5.6 km/h 5.6 km/h 41 % 0.0 mm
11:52 31.8 °C 16.9 °C 1014.8 hPa SW 5.6 km/h 5.6 km/h 41 % 0.0 mm
11:57 32.4 °C 17.4 °C 1014.8 hPa WNW 7.4 km/h 7.4 km/h 41 % 0.0 mm
12:02 32.4 °C 17.1 °C 1014.8 hPa WSW 9.3 km/h 9.3 km/h 40 % 0.0 mm
12:07 32.3 °C 16.6 °C 1014.8 hPa SW 6.4 km/h 6.4 km/h 39 % 0.0 mm
12:12 32.6 °C 16.8 °C 1014.8 hPa SW 3.7 km/h 3.7 km/h 39 % 0.0 mm
12:17 32.5 °C 16.3 °C 1014.8 hPa SSE 7.4 km/h 7.4 km/h 38 % 0.0 mm
12:22 33.1 °C 16.4 °C 1014.8 hPa SE 9.0 km/h 9.0 km/h 37 % 0.0 mm
12:27 33.1 °C 16.4 °C 1014.8 hPa East 5.6 km/h 5.6 km/h 37 % 0.0 mm
12:32 33.9 °C 17.2 °C 1013.8 hPa WSW 7.4 km/h 7.4 km/h 37 % 0.0 mm
12:37 34.2 °C 17.4 °C 1013.8 hPa West 9.3 km/h 9.3 km/h 37 % 0.0 mm
12:42 34.1 °C 17.3 °C 1013.8 hPa West 7.4 km/h 7.4 km/h 37 % 0.0 mm
12:47 33.7 °C 16.6 °C 1014.8 hPa WSW 11.1 km/h 11.1 km/h 36 % 0.0 mm
12:52 34.3 °C 16.7 °C 1014.8 hPa ESE 7.4 km/h 7.4 km/h 35 % 0.0 mm
12:57 34.7 °C 17.4 °C 1014.8 hPa SW 4.7 km/h 4.7 km/h 36 % 0.0 mm
13:02 34.8 °C 17.9 °C 1013.8 hPa SW 5.6 km/h 5.6 km/h 37 % 0.0 mm
13:08 34.2 °C 17.4 °C 1013.8 hPa SSW 7.4 km/h 7.4 km/h 37 % 0.0 mm
13:13 35.0 °C 17.3 °C 1013.8 hPa SW 7.6 km/h 7.6 km/h 35 % 0.0 mm
13:18 34.7 °C 17.4 °C 1014.8 hPa SSW 7.4 km/h 7.4 km/h 36 % 0.0 mm
13:23 34.5 °C 17.7 °C 1014.8 hPa SW 7.6 km/h 7.6 km/h 37 % 0.0 mm
13:28 34.7 °C 17.9 °C 1014.8 hPa WSW 13.0 km/h 13.0 km/h 37 % 0.0 mm
13:33 34.5 °C 17.7 °C 1013.8 hPa SW 7.4 km/h 7.4 km/h 37 % 0.0 mm
13:38 35.1 °C 17.8 °C 1013.8 hPa SW 9.3 km/h 9.3 km/h 36 % 0.0 mm
13:43 35.1 °C 17.8 °C 1013.8 hPa SSW 5.0 km/h 5.0 km/h 36 % 0.0 mm
13:48 34.4 °C 17.6 °C 1013.8 hPa SSW 14.8 km/h 14.8 km/h 37 % 0.0 mm
13:53 33.8 °C 17.5 °C 1013.8 hPa SW 20.4 km/h 20.4 km/h 38 % 0.0 mm
13:58 34.0 °C 17.7 °C 1013.8 hPa SW 14.8 km/h 14.8 km/h 38 % 0.0 mm
14:03 33.8 °C 17.5 °C 1013.8 hPa WSW 9.3 km/h 9.3 km/h 38 % 0.0 mm
14:08 33.3 °C 17.1 °C 1013.8 hPa SW 13.0 km/h 13.0 km/h 38 % 0.0 mm
14:13 33.5 °C 17.2 °C 1013.8 hPa WNW 11.1 km/h 11.1 km/h 38 % 0.0 mm
14:18 33.6 °C 17.3 °C 1013.8 hPa SW 13.0 km/h 13.0 km/h 38 % 0.0 mm
14:23 33.6 °C 17.3 °C 1013.8 hPa SW 11.1 km/h 11.1 km/h 38 % 0.0 mm
14:28 33.4 °C 17.2 °C 1013.8 hPa SSW 16.7 km/h 16.7 km/h 38 % 0.0 mm
14:33 33.4 °C 17.2 °C 1012.8 hPa WSW 14.8 km/h 14.8 km/h 38 % 0.0 mm
14:38 33.3 °C 17.1 °C 1012.8 hPa West 13.0 km/h 13.0 km/h 38 % 0.0 mm
14:43 33.3 °C 17.1 °C 1012.8 hPa SSW 16.7 km/h 16.7 km/h 38 % 0.0 mm
14:48 33.4 °C 17.2 °C 1012.8 hPa South 11.1 km/h 11.1 km/h 38 % 0.0 mm
14:53 33.6 °C 17.3 °C 1012.8 hPa SSW 15.8 km/h 15.8 km/h 38 % 0.0 mm
14:58 33.3 °C 17.1 °C 1012.8 hPa SW 11.1 km/h 11.1 km/h 38 % 0.0 mm
15:03 33.3 °C 17.1 °C 1012.8 hPa SW 10.8 km/h 10.8 km/h 38 % 0.0 mm
15:08 33.1 °C 16.9 °C 1012.8 hPa SW 16.4 km/h 16.4 km/h 38 % 0.0 mm
15:13 33.6 °C 17.3 °C 1012.8 hPa SW 13.0 km/h 13.0 km/h 38 % 0.0 mm
15:18 33.8 °C 17.1 °C 1012.8 hPa SSW 11.1 km/h 11.1 km/h 37 % 0.0 mm
15:23 33.9 °C 17.2 °C 1012.8 hPa SW 7.4 km/h 7.4 km/h 37 % 0.0 mm
15:28 33.7 °C 17.0 °C 1012.8 hPa SSE 16.7 km/h 16.7 km/h 37 % 0.0 mm
15:33 33.9 °C 17.2 °C 1012.8 hPa South 13.0 km/h 13.0 km/h 37 % 0.0 mm
15:38 33.8 °C 17.1 °C 1012.8 hPa SW 16.7 km/h 16.7 km/h 37 % 0.0 mm
15:43 33.9 °C 17.2 °C 1012.8 hPa WSW 9.7 km/h 9.7 km/h 37 % 0.0 mm
15:48 34.5 °C 17.7 °C 1013.8 hPa WSW 9.3 km/h 9.3 km/h 37 % 0.0 mm
15:53 34.3 °C 17.5 °C 1013.8 hPa SW 16.1 km/h 16.1 km/h 37 % 0.0 mm
15:58 33.6 °C 16.9 °C 1013.8 hPa SW 9.5 km/h 9.5 km/h 37 % 0.0 mm
16:03 33.6 °C 16.9 °C 1012.8 hPa South 13.0 km/h 13.0 km/h 37 % 0.0 mm
16:08 34.0 °C 17.3 °C 1012.8 hPa SSW 9.3 km/h 9.3 km/h 37 % 0.0 mm
16:13 33.7 °C 17.0 °C 1012.8 hPa South 13.0 km/h 13.0 km/h 37 % 0.0 mm
16:14 33.6 °C 16.9 °C 1013.8 hPa West 13.0 km/h 13.0 km/h 37 % 0.0 mm
16:19 33.9 °C 17.2 °C 1013.8 hPa WSW 10.3 km/h 10.3 km/h 37 % 0.0 mm
16:24 33.6 °C 16.9 °C 1013.8 hPa SSW 9.3 km/h 9.3 km/h 37 % 0.0 mm
16:29 33.3 °C 17.1 °C 1013.8 hPa South 9.5 km/h 9.5 km/h 38 % 0.0 mm
16:34 32.9 °C 17.1 °C 1013.8 hPa SW 11.1 km/h 11.1 km/h 39 % 0.0 mm
16:39 32.5 °C 16.8 °C 1013.8 hPa SW 11.1 km/h 11.1 km/h 39 % 0.0 mm
16:44 32.3 °C 16.6 °C 1013.8 hPa South 13.0 km/h 13.0 km/h 39 % 0.0 mm
16:49 31.9 °C 16.2 °C 1013.8 hPa SW 13.0 km/h 13.0 km/h 39 % 0.0 mm
16:54 31.4 °C 15.8 °C 1013.8 hPa SW 13.0 km/h 13.0 km/h 39 % 0.0 mm
16:59 31.5 °C 15.9 °C 1013.8 hPa WSW 9.3 km/h 9.3 km/h 39 % 0.0 mm
17:04 31.2 °C 15.6 °C 1013.8 hPa SSW 9.3 km/h 9.3 km/h 39 % 0.0 mm
17:09 30.9 °C 15.7 °C 1013.8 hPa SW 9.3 km/h 9.3 km/h 40 % 0.0 mm
17:14 30.7 °C 15.9 °C 1013.8 hPa West 9.3 km/h 9.3 km/h 41 % 0.0 mm
17:19 30.5 °C 15.8 °C 1013.8 hPa WSW 11.1 km/h 11.1 km/h 41 % 0.0 mm
17:24 30.2 °C 15.5 °C 1013.8 hPa SW 9.3 km/h 9.3 km/h 41 % 0.0 mm
17:29 30.0 °C 15.7 °C 1013.8 hPa WSW 14.8 km/h 14.8 km/h 42 % 0.0 mm
17:34 29.7 °C 15.8 °C 1013.8 hPa SSW 11.1 km/h 11.1 km/h 43 % 0.0 mm
17:39 29.6 °C 15.7 °C 1013.8 hPa SW 6.9 km/h 6.9 km/h 43 % 0.0 mm
17:44 29.4 °C 15.5 °C 1013.8 hPa WSW 8.7 km/h 8.7 km/h 43 % 0.0 mm
17:49 29.2 °C 15.7 °C 1013.8 hPa SW 9.3 km/h 9.3 km/h 44 % 0.0 mm
17:54 29.0 °C 15.5 °C 1013.8 hPa SW 18.5 km/h 18.5 km/h 44 % 0.0 mm
17:59 28.9 °C 16.1 °C 1013.8 hPa SW 9.5 km/h 9.5 km/h 46 % 0.0 mm
18:04 28.6 °C 16.2 °C 1013.8 hPa SW 16.7 km/h 16.7 km/h 47 % 0.0 mm
18:09 28.6 °C 16.2 °C 1013.8 hPa WSW 9.3 km/h 9.3 km/h 47 % 0.0 mm
18:14 28.4 °C 16.3 °C 1013.8 hPa SW 9.3 km/h 9.3 km/h 48 % 0.0 mm
18:19 28.4 °C 16.3 °C 1013.8 hPa WSW 11.1 km/h 11.1 km/h 48 % 0.0 mm
18:24 28.3 °C 16.2 °C 1013.8 hPa SSW 7.4 km/h 7.4 km/h 48 % 0.0 mm
18:29 28.3 °C 16.2 °C 1013.8 hPa SW 9.3 km/h 9.3 km/h 48 % 0.0 mm
18:34 28.3 °C 16.2 °C 1013.8 hPa SW 7.4 km/h 7.4 km/h 48 % 0.0 mm
18:39 28.3 °C 16.2 °C 1013.8 hPa WSW 14.8 km/h 14.8 km/h 48 % 0.0 mm
18:44 28.3 °C 16.2 °C 1012.8 hPa SW 9.3 km/h 9.3 km/h 48 % 0.0 mm
18:49 28.2 °C 16.2 °C 1012.8 hPa SW 11.1 km/h 11.1 km/h 48 % 0.0 mm
18:54 28.3 °C 16.2 °C 1012.8 hPa West 5.6 km/h 5.6 km/h 48 % 0.0 mm
18:59 28.2 °C 16.2 °C 1013.8 hPa SW 7.4 km/h 7.4 km/h 48 % 0.0 mm
19:04 28.0 °C 15.9 °C 1013.8 hPa SW 9.3 km/h 9.3 km/h 48 % 0.0 mm
19:09 28.0 °C 15.9 °C 1013.8 hPa WSW 9.7 km/h 9.7 km/h 48 % 0.0 mm
19:14 28.0 °C 15.9 °C 1013.8 hPa SW 7.4 km/h 7.4 km/h 48 % 0.0 mm
19:19 28.1 °C 16.1 °C 1013.8 hPa WSW 5.6 km/h 5.6 km/h 48 % 0.0 mm
19:24 28.0 °C 15.6 °C 1013.8 hPa WSW 7.4 km/h 7.4 km/h 47 % 0.0 mm
19:29 28.1 °C 15.7 °C 1013.8 hPa West 7.4 km/h 7.4 km/h 47 % 0.0 mm
19:34 28.0 °C 15.6 °C 1013.8 hPa West 4.7 km/h 4.7 km/h 47 % 0.0 mm
19:39 28.0 °C 15.6 °C 1013.8 hPa SW 5.3 km/h 5.3 km/h 47 % 0.0 mm
19:44 28.0 °C 15.6 °C 1013.8 hPa West 4.2 km/h 4.2 km/h 47 % 0.0 mm
19:49 27.8 °C 15.4 °C 1013.8 hPa West 3.7 km/h 3.7 km/h 47 % 0.0 mm
19:54 27.8 °C 15.4 °C 1013.8 hPa SSW 3.9 km/h 3.9 km/h 47 % 0.0 mm
19:59 27.7 °C 15.7 °C 1013.8 hPa SW 3.7 km/h 3.7 km/h 48 % 0.0 mm
20:04 27.6 °C 15.6 °C 1013.8 hPa SW 3.7 km/h 3.9 km/h 48 % 0.0 mm
20:06 27.6 °C 15.6 °C 1013.8 hPa WSW 3.7 km/h 3.7 km/h 48 % 0.0 mm
20:11 27.6 °C 15.6 °C 1013.8 hPa WSW 3.7 km/h 3.7 km/h 48 % 0.0 mm
20:16 27.6 °C 15.6 °C 1013.8 hPa SW 3.2 km/h 3.2 km/h 48 % 0.0 mm
20:21 27.5 °C 15.5 °C 1013.8 hPa SW 3.7 km/h 3.7 km/h 48 % 0.0 mm
20:26 27.4 °C 15.4 °C 1013.8 hPa WSW 3.7 km/h 3.7 km/h 48 % 0.0 mm
20:31 27.4 °C 15.4 °C 1013.8 hPa SW 4.2 km/h 4.2 km/h 48 % 0.0 mm
20:36 27.3 °C 15.3 °C 1013.8 hPa WSW 3.7 km/h 3.7 km/h 48 % 0.0 mm
20:41 27.3 °C 15.3 °C 1013.8 hPa SW 3.7 km/h 3.7 km/h 48 % 0.0 mm
20:46 27.1 °C 15.4 °C 1013.8 hPa South 2.3 km/h 2.3 km/h 49 % 0.0 mm
20:51 27.0 °C 15.4 °C 1013.8 hPa WSW 5.6 km/h 5.6 km/h 49 % 0.0 mm
20:56 26.9 °C 15.6 °C 1013.8 hPa SW 5.6 km/h 5.6 km/h 50 % 0.0 mm
21:01 26.8 °C 15.5 °C 1013.8 hPa SW 5.6 km/h 5.6 km/h 50 % 0.0 mm
21:06 26.7 °C 15.7 °C 1013.8 hPa WSW 5.6 km/h 5.6 km/h 51 % 0.0 mm
21:11 26.6 °C 15.6 °C 1013.8 hPa SW 3.7 km/h 3.7 km/h 51 % 0.0 mm
21:16 26.4 °C 15.4 °C 1013.8 hPa SSW 5.6 km/h 5.6 km/h 51 % 0.0 mm
21:21 26.3 °C 15.7 °C 1013.8 hPa SW 3.7 km/h 3.7 km/h 52 % 0.0 mm
21:26 26.2 °C 15.6 °C 1013.8 hPa SW 7.4 km/h 7.4 km/h 52 % 0.0 mm
21:31 26.1 °C 15.8 °C 1013.8 hPa SSW 5.3 km/h 5.3 km/h 53 % 0.0 mm
21:36 26.0 °C 15.7 °C 1013.8 hPa SW 5.6 km/h 5.6 km/h 53 % 0.0 mm
21:41 25.9 °C 15.6 °C 1013.8 hPa WSW 3.7 km/h 3.7 km/h 53 % 0.0 mm
21:46 25.7 °C 15.4 °C 1013.8 hPa SW 6.1 km/h 6.1 km/h 53 % 0.0 mm
21:51 25.5 °C 15.5 °C 1013.8 hPa WSW 7.4 km/h 7.4 km/h 54 % 0.0 mm
21:56 25.5 °C 15.5 °C 1013.8 hPa WNW 7.4 km/h 7.4 km/h 54 % 0.0 mm
22:01 25.4 °C 15.7 °C 1014.8 hPa SW 5.6 km/h 5.6 km/h 55 % 0.0 mm
22:06 25.4 °C 15.7 °C 1014.8 hPa West 7.4 km/h 7.4 km/h 55 % 0.0 mm
22:11 25.3 °C 15.6 °C 1014.8 hPa WSW 6.4 km/h 6.4 km/h 55 % 0.0 mm
22:16 25.2 °C 15.5 °C 1014.8 hPa West 7.4 km/h 7.4 km/h 55 % 0.0 mm
22:21 25.1 °C 15.4 °C 1014.8 hPa WSW 6.1 km/h 6.1 km/h 55 % 0.0 mm
22:26 25.1 °C 15.4 °C 1014.8 hPa SW 5.6 km/h 5.6 km/h 55 % 0.0 mm
22:31 25.0 °C 15.6 °C 1014.8 hPa SW 3.7 km/h 3.7 km/h 56 % 0.0 mm
22:36 24.9 °C 15.5 °C 1014.8 hPa WSW 7.4 km/h 7.4 km/h 56 % 0.0 mm
22:41 24.8 °C 15.7 °C 1014.8 hPa WSW 2.6 km/h 2.6 km/h 57 % 0.0 mm
22:46 24.7 °C 15.6 °C 1014.8 hPa SW 4.2 km/h 4.2 km/h 57 % 0.0 mm
22:51 24.7 °C 15.3 °C 1014.8 hPa West 5.3 km/h 5.3 km/h 56 % 0.0 mm
22:56 24.6 °C 15.2 °C 1014.8 hPa SW 6.1 km/h 6.1 km/h 56 % 0.0 mm
23:01 24.6 °C 15.2 °C 1014.8 hPa SW 3.9 km/h 3.9 km/h 56 % 0.0 mm
23:06 24.5 °C 15.4 °C 1014.8 hPa SW 3.7 km/h 3.7 km/h 57 % 0.0 mm
23:11 24.4 °C 15.1 °C 1014.8 hPa WSW 3.7 km/h 3.7 km/h 56 % 0.0 mm
23:16 24.4 °C 15.1 °C 1015.8 hPa West 5.8 km/h 5.8 km/h 56 % 0.0 mm
23:21 24.4 °C 15.1 °C 1015.8 hPa WSW 4.2 km/h 4.2 km/h 56 % 0.0 mm
23:26 24.3 °C 14.9 °C 1015.8 hPa West 3.7 km/h 3.7 km/h 56 % 0.0 mm
23:31 24.2 °C 15.2 °C 1015.8 hPa WSW 3.7 km/h 3.7 km/h 57 % 0.0 mm
23:36 24.1 °C 15.1 °C 1015.8 hPa West 3.5 km/h 3.5 km/h 57 % 0.0 mm
23:41 24.1 °C 15.1 °C 1015.8 hPa WSW 2.3 km/h 2.3 km/h 57 % 0.0 mm
23:46 24.1 °C 15.1 °C 1015.8 hPa West 2.3 km/h 2.3 km/h 57 % 0.0 mm
23:51 24.1 °C 14.8 °C 1015.8 hPa West 3.7 km/h 3.7 km/h 56 % 0.0 mm
23:56 24.1 °C 14.8 °C 1015.8 hPa West 3.7 km/h 3.7 km/h 56 % 0.0 mm
Meteo Sesrovires
Elogis d' Weather Underground - 3.5 mb

Guio original per  Jim McMurry - jmcmurry@mwt.net Adaptat per a la plantilla per  Wim van der Kuil - Leuven-Template.eu

Trobareu la nostra informacio del temps tambe a:

Weather Underground

AWEKAS